createdAt,value
2022-08-02T00:03:25.189Z,39.60
2022-08-02T00:08:27.032Z,40.20
2022-08-02T00:13:28.938Z,40.25
2022-08-02T00:18:30.831Z,40.48
2022-08-02T00:23:32.955Z,40.92
2022-08-02T00:28:54.745Z,41.06
2022-08-02T00:34:26.818Z,41.60
2022-08-02T00:39:34.923Z,41.63
2022-08-02T00:44:37.682Z,41.91
2022-08-02T00:49:39.287Z,41.93
2022-08-02T00:54:41.621Z,41.97
2022-08-02T00:59:43.722Z,42.06
2022-08-02T01:04:45.544Z,42.46
2022-08-02T01:09:47.390Z,42.73
2022-08-02T01:14:51.661Z,42.96
2022-08-02T01:20:12.160Z,42.98
2022-08-02T01:26:12.373Z,43.04
2022-08-02T01:31:21.500Z,43.15
2022-08-02T01:36:24.679Z,43.43
2022-08-02T01:41:28.471Z,43.30
2022-08-02T01:46:33.040Z,43.37
2022-08-02T01:51:55.183Z,43.45
2022-08-02T01:56:58.374Z,43.42
2022-08-02T02:02:01.736Z,43.59
2022-08-02T02:07:04.493Z,43.59
2022-08-02T02:12:13.518Z,43.40
2022-08-02T02:18:10.826Z,43.32
2022-08-02T02:22:38.365Z,43.37
2022-08-02T02:27:50.982Z,43.23
2022-08-02T02:32:56.455Z,42.95
2022-08-02T02:38:02.855Z,42.84
2022-08-02T02:43:06.376Z,42.84
2022-08-02T02:48:09.861Z,43.09
2022-08-02T02:53:13.624Z,43.34
2022-08-02T02:58:16.115Z,43.72
2022-08-02T03:03:19.606Z,43.58
2022-08-02T03:08:23.884Z,43.83
2022-08-02T03:13:26.667Z,43.90
2022-08-02T03:18:37.142Z,44.05
2022-08-02T03:23:40.498Z,44.27
2022-08-02T03:28:43.627Z,44.14
2022-08-02T03:33:46.543Z,44.34
2022-08-02T03:38:50.058Z,44.47
2022-08-02T03:43:53.041Z,44.67
2022-08-02T03:48:56.881Z,44.76
2022-08-02T03:54:00.451Z,44.91
2022-08-02T03:59:13.910Z,45.16
2022-08-02T04:04:16.476Z,45.48
2022-08-02T04:09:18.223Z,45.38
2022-08-02T04:14:20.550Z,45.53
2022-08-02T04:19:32.789Z,45.70
2022-08-02T04:24:52.035Z,45.80
2022-08-02T04:29:56.211Z,45.47
2022-08-02T04:35:18.739Z,45.94
2022-08-02T04:40:20.217Z,46.05
2022-08-02T04:45:22.571Z,46.28
2022-08-02T04:50:24.499Z,46.32
2022-08-02T04:55:29.120Z,46.30
2022-08-02T05:00:32.871Z,46.44
2022-08-02T05:05:34.660Z,46.66
2022-08-02T05:10:36.330Z,46.93
2022-08-02T05:15:38.110Z,46.99
2022-08-02T05:20:39.735Z,46.62
2022-08-02T05:25:41.392Z,46.65
2022-08-02T05:30:43.212Z,46.95
2022-08-02T05:35:45.273Z,46.88
2022-08-02T05:40:54.966Z,47.32
2022-08-02T05:45:57.108Z,47.36
2022-08-02T05:51:37.590Z,47.29
2022-08-02T05:56:49.660Z,47.55
2022-08-02T06:01:57.063Z,47.78
2022-08-02T06:07:02.769Z,47.75
2022-08-02T06:12:06.989Z,48.11
2022-08-02T06:17:09.531Z,47.71
2022-08-02T06:22:33.904Z,47.53
2022-08-02T06:27:40.104Z,47.78
2022-08-02T06:32:44.936Z,47.97
2022-08-02T06:37:59.078Z,47.69
2022-08-02T06:43:17.661Z,47.61
2022-08-02T06:48:19.764Z,47.48
2022-08-02T06:53:21.785Z,47.33
2022-08-02T06:58:23.720Z,47.20
2022-08-02T07:03:25.732Z,47.07
2022-08-02T07:08:28.311Z,46.80
2022-08-02T07:13:30.338Z,46.60
2022-08-02T07:18:32.062Z,46.60
2022-08-02T07:23:34.059Z,46.48
2022-08-02T07:28:35.679Z,45.89
2022-08-02T07:33:40.276Z,46.10
2022-08-02T07:38:45.599Z,45.89
2022-08-02T07:43:47.516Z,45.65
2022-08-02T07:48:49.135Z,45.46
2022-08-02T07:54:02.541Z,45.37
2022-08-02T07:59:06.898Z,44.88
2022-08-02T08:04:08.554Z,44.75
2022-08-02T08:09:13.153Z,44.46
2022-08-02T08:14:17.013Z,44.23
2022-08-02T08:19:19.015Z,43.76
2022-08-02T08:24:20.879Z,43.89
2022-08-02T08:29:24.025Z,43.65
2022-08-02T08:34:27.234Z,43.21
2022-08-02T08:39:29.058Z,43.12
2022-08-02T08:44:30.789Z,42.91
2022-08-02T08:49:40.153Z,43.20
2022-08-02T08:54:56.924Z,42.81
2022-08-02T09:00:01.269Z,42.58
2022-08-02T09:05:03.188Z,41.90
2022-08-02T09:10:44.301Z,42.12
2022-08-02T09:15:55.359Z,41.59
2022-08-02T09:21:02.601Z,41.38
2022-08-02T09:26:15.088Z,41.18
2022-08-02T09:31:18.650Z,40.11
2022-08-02T09:36:21.373Z,39.96
2022-08-02T09:41:30.071Z,39.92
2022-08-02T09:46:38.052Z,39.49
2022-08-02T09:51:48.629Z,39.27
2022-08-02T09:56:55.939Z,39.18
2022-08-02T10:02:02.215Z,39.28
2022-08-02T10:07:06.530Z,38.76
2022-08-02T10:12:08.454Z,38.84
2022-08-02T10:17:10.706Z,38.63
2022-08-02T10:22:15.168Z,37.99
2022-08-02T10:27:22.690Z,37.71
2022-08-02T10:32:33.123Z,37.51
2022-08-02T10:37:39.470Z,36.71
2022-08-02T10:42:53.898Z,36.68
2022-08-02T10:48:10.192Z,36.59
2022-08-02T10:53:31.501Z,35.99
2022-08-02T10:58:34.098Z,34.49
2022-08-02T11:03:40.283Z,34.50
2022-08-02T11:08:42.125Z,35.24
2022-08-02T11:14:08.750Z,35.12
2022-08-02T11:19:12.171Z,34.45
2022-08-02T11:24:28.775Z,33.72
2022-08-02T11:29:33.508Z,33.31
2022-08-02T11:34:42.489Z,32.39
2022-08-02T11:39:51.587Z,32.45
2022-08-02T11:44:53.221Z,32.35
2022-08-02T11:50:08.829Z,32.04
2022-08-02T11:55:11.606Z,32.05
2022-08-02T12:00:19.530Z,32.03
2022-08-02T12:05:44.712Z,31.85
2022-08-02T12:10:50.462Z,32.22
2022-08-02T12:15:52.537Z,31.77
2022-08-02T12:20:54.318Z,31.95
2022-08-02T12:26:04.912Z,32.02
2022-08-02T12:31:11.306Z,31.72
2022-08-02T12:36:21.302Z,31.76
2022-08-02T12:41:31.568Z,31.62
2022-08-02T12:46:35.705Z,31.14
2022-08-02T12:51:51.412Z,31.22
2022-08-02T12:57:14.514Z,31.38
2022-08-02T13:02:17.710Z,30.37
2022-08-02T13:07:19.900Z,30.86
2022-08-02T13:12:21.608Z,30.47
2022-08-02T13:17:23.795Z,29.87
2022-08-02T13:22:26.031Z,29.63
2022-08-02T13:27:32.469Z,29.34
2022-08-02T13:32:34.384Z,29.50
2022-08-02T13:37:40.244Z,28.04
2022-08-02T13:42:42.259Z,27.77
2022-08-02T13:48:03.388Z,28.04
2022-08-02T13:53:06.802Z,27.88
2022-08-02T13:58:09.313Z,27.82
2022-08-02T14:03:12.278Z,27.66
2022-08-02T14:08:16.802Z,27.51
2022-08-02T14:13:19.514Z,27.50
2022-08-02T14:18:21.187Z,27.46
2022-08-02T14:23:50.017Z,28.00
2022-08-02T14:28:45.083Z,27.28
2022-08-02T14:33:51.784Z,27.44
2022-08-02T14:38:53.406Z,26.94
2022-08-02T14:44:05.277Z,27.20
2022-08-02T14:49:09.140Z,27.18
2022-08-02T14:54:11.906Z,26.84
2022-08-02T14:59:16.355Z,27.39
2022-08-02T15:04:18.157Z,27.02
2022-08-02T15:09:20.164Z,26.90
2022-08-02T15:14:26.367Z,27.20
2022-08-02T15:19:53.013Z,27.34
2022-08-02T15:24:51.213Z,26.51
2022-08-02T15:30:00.004Z,26.38
2022-08-02T15:35:06.115Z,26.98
2022-08-02T15:40:13.719Z,26.26
2022-08-02T15:45:22.407Z,26.29
2022-08-02T15:50:24.101Z,26.08
2022-08-02T15:55:26.362Z,25.85
2022-08-02T16:00:30.082Z,26.24
2022-08-02T16:05:31.754Z,25.83
2022-08-02T16:10:34.166Z,25.68
2022-08-02T16:15:35.818Z,26.09
2022-08-02T16:20:37.397Z,26.17
2022-08-02T16:25:41.971Z,25.76
2022-08-02T16:30:54.215Z,25.94
2022-08-02T16:36:05.680Z,26.37
2022-08-02T16:41:07.392Z,26.04
2022-08-02T16:46:09.965Z,25.79
2022-08-02T16:51:13.666Z,25.80
2022-08-02T16:56:15.886Z,26.16
2022-08-02T17:01:18.582Z,26.30
2022-08-02T17:06:28.993Z,26.21
2022-08-02T17:11:30.889Z,25.99
2022-08-02T17:16:32.953Z,26.15
2022-08-02T17:21:34.759Z,26.45
2022-08-02T17:26:37.674Z,26.38
2022-08-02T17:31:43.683Z,26.69
2022-08-02T17:36:49.640Z,26.86
2022-08-02T17:41:51.974Z,26.62
2022-08-02T17:46:54.122Z,26.40
2022-08-02T17:52:48.661Z,26.45
2022-08-02T17:57:19.836Z,26.44
2022-08-02T18:02:21.479Z,26.59
2022-08-02T18:07:25.053Z,26.37
2022-08-02T18:12:27.041Z,26.30
2022-08-02T18:17:29.651Z,26.41
2022-08-02T18:22:31.729Z,26.71
2022-08-02T18:27:33.445Z,26.95
2022-08-02T18:33:53.761Z,27.13
2022-08-02T18:38:03.581Z,27.45
2022-08-02T18:43:25.143Z,27.47
2022-08-02T18:48:30.073Z,27.57
2022-08-02T18:53:41.594Z,27.61
2022-08-02T18:58:44.582Z,27.71
2022-08-02T19:03:49.210Z,28.08
2022-08-02T19:09:04.891Z,28.26
2022-08-02T19:14:24.280Z,28.22
2022-08-02T19:19:29.837Z,28.42
2022-08-02T19:24:31.530Z,28.82
2022-08-02T19:29:43.025Z,28.58
2022-08-02T19:34:52.257Z,28.82
2022-08-02T19:39:54.232Z,29.00
2022-08-02T19:44:56.794Z,29.13
2022-08-02T19:49:59.058Z,29.19
2022-08-02T19:55:58.398Z,29.40
2022-08-02T20:00:27.446Z,29.32
2022-08-02T20:05:29.166Z,29.59
2022-08-02T20:10:33.444Z,29.71
2022-08-02T20:15:56.248Z,29.81
2022-08-02T20:20:58.339Z,29.79
2022-08-02T20:26:00.005Z,29.93
2022-08-02T20:31:08.884Z,30.05
2022-08-02T20:36:10.704Z,29.95
2022-08-02T20:41:12.344Z,30.10
2022-08-02T20:46:24.781Z,30.20
2022-08-02T20:51:33.395Z,30.21
2022-08-02T20:56:35.590Z,30.32
2022-08-02T21:01:40.083Z,30.41
2022-08-02T21:07:01.747Z,30.41
2022-08-02T21:12:05.761Z,30.88
2022-08-02T21:17:17.991Z,30.82
2022-08-02T21:22:28.285Z,31.03
2022-08-02T21:27:52.650Z,31.15
2022-08-02T21:32:54.930Z,31.28
2022-08-02T21:37:58.687Z,31.24
2022-08-02T21:43:01.736Z,31.64
2022-08-02T21:48:04.632Z,31.54
2022-08-02T21:53:06.276Z,31.90
2022-08-02T21:58:15.185Z,32.17
2022-08-02T22:03:24.404Z,32.21
2022-08-02T22:08:31.809Z,32.38
2022-08-02T22:13:38.714Z,32.68
2022-08-02T22:18:51.402Z,33.05
2022-08-02T22:23:55.963Z,33.46
2022-08-02T22:28:59.645Z,33.46
2022-08-02T22:34:07.949Z,33.92
2022-08-02T22:39:29.091Z,34.19
2022-08-02T22:44:30.853Z,34.25
2022-08-02T22:49:38.015Z,34.65
2022-08-02T22:54:54.764Z,34.82
2022-08-02T22:59:56.904Z,34.86
2022-08-02T23:04:59.914Z,35.17
2022-08-02T23:10:03.764Z,35.33
2022-08-02T23:15:06.129Z,35.56
2022-08-02T23:20:11.776Z,35.77
2022-08-02T23:25:14.313Z,35.88
2022-08-02T23:30:16.717Z,35.84
2022-08-02T23:35:18.412Z,36.07
2022-08-02T23:40:39.309Z,36.01
2022-08-02T23:45:45.722Z,36.16
2022-08-02T23:50:48.082Z,36.70
2022-08-02T23:55:49.860Z,36.81
